sensor_id;sensor_type;location;lat;lon;timestamp;temperature;humidity
1011;DHT22;494;48.744;10.106;2023-06-22T00:02:18;20.70;44.80
1011;DHT22;494;48.744;10.106;2023-06-22T00:04:47;20.70;44.90
1011;DHT22;494;48.744;10.106;2023-06-22T00:07:17;20.70;45.20
1011;DHT22;494;48.744;10.106;2023-06-22T00:09:45;20.70;45.40
1011;DHT22;494;48.744;10.106;2023-06-22T00:12:14;20.60;45.60
1011;DHT22;494;48.744;10.106;2023-06-22T00:14:43;20.60;45.30
1011;DHT22;494;48.744;10.106;2023-06-22T00:17:12;20.60;45.00
1011;DHT22;494;48.744;10.106;2023-06-22T00:19:41;20.50;45.20
1011;DHT22;494;48.744;10.106;2023-06-22T00:22:10;20.40;46.40
1011;DHT22;494;48.744;10.106;2023-06-22T00:24:40;20.40;47.00
1011;DHT22;494;48.744;10.106;2023-06-22T00:27:09;20.40;47.10
1011;DHT22;494;48.744;10.106;2023-06-22T00:29:37;20.40;47.10
1011;DHT22;494;48.744;10.106;2023-06-22T00:32:06;20.40;46.60
1011;DHT22;494;48.744;10.106;2023-06-22T00:34:35;20.40;46.50
1011;DHT22;494;48.744;10.106;2023-06-22T00:37:04;20.40;46.20
1011;DHT22;494;48.744;10.106;2023-06-22T00:39:33;20.30;45.80
1011;DHT22;494;48.744;10.106;2023-06-22T00:42:03;20.20;46.10
1011;DHT22;494;48.744;10.106;2023-06-22T00:44:32;20.20;46.00
1011;DHT22;494;48.744;10.106;2023-06-22T00:47:01;20.10;46.10
1011;DHT22;494;48.744;10.106;2023-06-22T00:49:31;20.10;46.40
1011;DHT22;494;48.744;10.106;2023-06-22T00:51:59;20.10;46.40
1011;DHT22;494;48.744;10.106;2023-06-22T00:54:28;20.20;47.10
1011;DHT22;494;48.744;10.106;2023-06-22T00:56:58;20.20;46.50
1011;DHT22;494;48.744;10.106;2023-06-22T00:59:28;20.20;46.30
1011;DHT22;494;48.744;10.106;2023-06-22T01:01:57;20.20;46.20
1011;DHT22;494;48.744;10.106;2023-06-22T01:04:36;20.20;46.00
1011;DHT22;494;48.744;10.106;2023-06-22T01:07:13;20.20;45.70
1011;DHT22;494;48.744;10.106;2023-06-22T01:09:57;20.10;45.80
1011;DHT22;494;48.744;10.106;2023-06-22T01:12:32;20.10;46.10
1011;DHT22;494;48.744;10.106;2023-06-22T01:15:11;20.10;46.10
1011;DHT22;494;48.744;10.106;2023-06-22T01:17:48;20.10;46.10
1011;DHT22;494;48.744;10.106;2023-06-22T01:20:20;20.20;46.00
1011;DHT22;494;48.744;10.106;2023-06-22T01:23:05;20.20;45.80
1011;DHT22;494;48.744;10.106;2023-06-22T01:25:46;20.20;45.50
1011;DHT22;494;48.744;10.106;2023-06-22T01:28:44;20.30;45.50
1011;DHT22;494;48.744;10.106;2023-06-22T01:31:18;20.20;45.60
1011;DHT22;494;48.744;10.106;2023-06-22T01:33:53;20.20;45.70
1011;DHT22;494;48.744;10.106;2023-06-22T01:36:26;20.20;45.70
1011;DHT22;494;48.744;10.106;2023-06-22T01:38:57;20.20;45.70
1011;DHT22;494;48.744;10.106;2023-06-22T01:41:29;20.20;45.50
1011;DHT22;494;48.744;10.106;2023-06-22T01:44:01;20.20;45.40
1011;DHT22;494;48.744;10.106;2023-06-22T01:46:33;20.10;45.70
1011;DHT22;494;48.744;10.106;2023-06-22T01:49:04;20.10;45.80
1011;DHT22;494;48.744;10.106;2023-06-22T01:51:33;20.20;45.80
1011;DHT22;494;48.744;10.106;2023-06-22T01:54:02;20.20;46.00
1011;DHT22;494;48.744;10.106;2023-06-22T01:56:30;20.20;46.10
1011;DHT22;494;48.744;10.106;2023-06-22T01:59:07;20.10;46.30
1011;DHT22;494;48.744;10.106;2023-06-22T02:01:43;20.00;46.70
1011;DHT22;494;48.744;10.106;2023-06-22T02:04:21;20.10;46.90
1011;DHT22;494;48.744;10.106;2023-06-22T02:06:56;20.20;46.80
1011;DHT22;494;48.744;10.106;2023-06-22T02:09:30;20.20;46.50
1011;DHT22;494;48.744;10.106;2023-06-22T02:12:01;20.30;46.40
1011;DHT22;494;48.744;10.106;2023-06-22T02:14:34;20.20;46.10
1011;DHT22;494;48.744;10.106;2023-06-22T02:17:04;20.10;46.40
1011;DHT22;494;48.744;10.106;2023-06-22T02:19:36;20.10;46.20
1011;DHT22;494;48.744;10.106;2023-06-22T02:22:04;20.00;46.70
1011;DHT22;494;48.744;10.106;2023-06-22T02:24:33;19.90;45.90
1011;DHT22;494;48.744;10.106;2023-06-22T02:27:02;19.80;46.00
1011;DHT22;494;48.744;10.106;2023-06-22T02:29:35;19.70;46.00
1011;DHT22;494;48.744;10.106;2023-06-22T02:32:04;19.60;46.00
1011;DHT22;494;48.744;10.106;2023-06-22T02:34:33;19.50;46.60
1011;DHT22;494;48.744;10.106;2023-06-22T02:37:04;19.50;47.00
1011;DHT22;494;48.744;10.106;2023-06-22T02:39:33;19.50;46.80
1011;DHT22;494;48.744;10.106;2023-06-22T02:42:02;19.40;46.60
1011;DHT22;494;48.744;10.106;2023-06-22T02:44:31;19.40;47.00
1011;DHT22;494;48.744;10.106;2023-06-22T02:47:01;19.50;47.70
1011;DHT22;494;48.744;10.106;2023-06-22T02:49:36;19.40;47.10
1011;DHT22;494;48.744;10.106;2023-06-22T02:52:05;19.50;46.80
1011;DHT22;494;48.744;10.106;2023-06-22T02:54:34;19.50;46.80
1011;DHT22;494;48.744;10.106;2023-06-22T02:57:03;19.50;47.00
1011;DHT22;494;48.744;10.106;2023-06-22T02:59:32;19.40;47.10
1011;DHT22;494;48.744;10.106;2023-06-22T03:02:03;19.40;46.30
1011;DHT22;494;48.744;10.106;2023-06-22T03:04:32;19.40;46.00
1011;DHT22;494;48.744;10.106;2023-06-22T03:07:01;19.30;46.10
1011;DHT22;494;48.744;10.106;2023-06-22T03:09:32;19.20;46.50
1011;DHT22;494;48.744;10.106;2023-06-22T03:12:01;19.00;47.10
1011;DHT22;494;48.744;10.106;2023-06-22T03:14:30;19.20;46.80
1011;DHT22;494;48.744;10.106;2023-06-22T03:16:59;19.20;46.90
1011;DHT22;494;48.744;10.106;2023-06-22T03:19:31;19.30;47.60
1011;DHT22;494;48.744;10.106;2023-06-22T03:22:00;19.30;46.60
1011;DHT22;494;48.744;10.106;2023-06-22T03:24:29;19.30;46.40
1011;DHT22;494;48.744;10.106;2023-06-22T03:26:57;19.30;46.50
1011;DHT22;494;48.744;10.106;2023-06-22T03:29:27;19.40;46.60
1011;DHT22;494;48.744;10.106;2023-06-22T03:31:57;19.40;46.60
1011;DHT22;494;48.744;10.106;2023-06-22T03:34:26;19.40;46.70
1011;DHT22;494;48.744;10.106;2023-06-22T03:36:57;19.40;46.60
1011;DHT22;494;48.744;10.106;2023-06-22T03:39:26;19.40;46.40
1011;DHT22;494;48.744;10.106;2023-06-22T03:41:54;19.40;45.80
1011;DHT22;494;48.744;10.106;2023-06-22T03:44:23;19.40;45.60
1011;DHT22;494;48.744;10.106;2023-06-22T03:46:51;19.30;46.10
1011;DHT22;494;48.744;10.106;2023-06-22T03:49:20;19.20;46.30
1011;DHT22;494;48.744;10.106;2023-06-22T03:51:49;19.20;46.40
1011;DHT22;494;48.744;10.106;2023-06-22T03:54:19;19.20;46.40
1011;DHT22;494;48.744;10.106;2023-06-22T03:56:47;19.30;46.50
1011;DHT22;494;48.744;10.106;2023-06-22T03:59:16;19.30;46.70
1011;DHT22;494;48.744;10.106;2023-06-22T04:01:44;19.30;47.00
1011;DHT22;494;48.744;10.106;2023-06-22T04:04:13;19.40;47.90
1011;DHT22;494;48.744;10.106;2023-06-22T04:06:42;19.50;47.20
1011;DHT22;494;48.744;10.106;2023-06-22T04:09:12;19.50;47.00
1011;DHT22;494;48.744;10.106;2023-06-22T04:11:42;19.60;47.00
1011;DHT22;494;48.744;10.106;2023-06-22T04:14:11;19.70;46.80
1011;DHT22;494;48.744;10.106;2023-06-22T04:16:39;19.70;46.70
1011;DHT22;494;48.744;10.106;2023-06-22T04:19:08;19.80;46.30
1011;DHT22;494;48.744;10.106;2023-06-22T04:21:43;19.90;46.00
1011;DHT22;494;48.744;10.106;2023-06-22T04:24:12;20.00;45.80
1011;DHT22;494;48.744;10.106;2023-06-22T04:26:42;20.10;45.60
1011;DHT22;494;48.744;10.106;2023-06-22T04:29:14;20.20;45.00
1011;DHT22;494;48.744;10.106;2023-06-22T04:31:43;20.20;44.80
1011;DHT22;494;48.744;10.106;2023-06-22T04:34:12;20.30;44.70
1011;DHT22;494;48.744;10.106;2023-06-22T04:36:43;20.30;44.40
1011;DHT22;494;48.744;10.106;2023-06-22T04:39:12;20.40;43.90
1011;DHT22;494;48.744;10.106;2023-06-22T04:41:42;20.40;43.40
1011;DHT22;494;48.744;10.106;2023-06-22T04:44:11;20.40;43.60
1011;DHT22;494;48.744;10.106;2023-06-22T04:46:40;20.50;43.50
1011;DHT22;494;48.744;10.106;2023-06-22T04:49:09;20.60;43.10
1011;DHT22;494;48.744;10.106;2023-06-22T04:51:40;20.60;42.80
1011;DHT22;494;48.744;10.106;2023-06-22T04:54:09;20.70;42.90
1011;DHT22;494;48.744;10.106;2023-06-22T04:56:39;20.80;43.10
1011;DHT22;494;48.744;10.106;2023-06-22T04:59:09;20.90;43.10
1011;DHT22;494;48.744;10.106;2023-06-22T05:01:40;21.00;43.70
1011;DHT22;494;48.744;10.106;2023-06-22T05:04:08;21.10;42.90
1011;DHT22;494;48.744;10.106;2023-06-22T05:06:38;21.30;42.80
1011;DHT22;494;48.744;10.106;2023-06-22T05:09:07;21.40;42.40
1011;DHT22;494;48.744;10.106;2023-06-22T05:11:35;21.50;42.60
1011;DHT22;494;48.744;10.106;2023-06-22T05:14:04;21.60;42.60
1011;DHT22;494;48.744;10.106;2023-06-22T05:16:36;21.70;42.40
1011;DHT22;494;48.744;10.106;2023-06-22T05:19:05;21.80;42.00
1011;DHT22;494;48.744;10.106;2023-06-22T05:21:34;21.90;41.50
1011;DHT22;494;48.744;10.106;2023-06-22T05:24:03;22.10;41.10
1011;DHT22;494;48.744;10.106;2023-06-22T05:26:34;22.30;40.60
1011;DHT22;494;48.744;10.106;2023-06-22T05:29:03;22.30;41.00
1011;DHT22;494;48.744;10.106;2023-06-22T05:31:32;22.40;41.90
1011;DHT22;494;48.744;10.106;2023-06-22T05:34:02;22.50;41.40
1011;DHT22;494;48.744;10.106;2023-06-22T05:36:31;22.60;41.20
1011;DHT22;494;48.744;10.106;2023-06-22T05:39:11;22.70;40.80
1011;DHT22;494;48.744;10.106;2023-06-22T05:41:44;22.80;41.00
1011;DHT22;494;48.744;10.106;2023-06-22T05:44:14;22.80;40.50
1011;DHT22;494;48.744;10.106;2023-06-22T05:46:46;22.80;40.50
1011;DHT22;494;48.744;10.106;2023-06-22T05:49:17;22.80;39.80
1011;DHT22;494;48.744;10.106;2023-06-22T05:51:46;22.90;39.70
1011;DHT22;494;48.744;10.106;2023-06-22T05:54:24;23.00;39.20
1011;DHT22;494;48.744;10.106;2023-06-22T05:56:54;23.10;38.80
1011;DHT22;494;48.744;10.106;2023-06-22T05:59:23;23.30;38.50
1011;DHT22;494;48.744;10.106;2023-06-22T06:01:51;23.40;37.60
1011;DHT22;494;48.744;10.106;2023-06-22T06:04:22;23.50;36.60
1011;DHT22;494;48.744;10.106;2023-06-22T06:06:51;23.60;36.00
1011;DHT22;494;48.744;10.106;2023-06-22T06:09:19;23.90;35.70
1011;DHT22;494;48.744;10.106;2023-06-22T06:11:48;24.10;33.90
1011;DHT22;494;48.744;10.106;2023-06-22T06:14:17;24.30;33.30
1011;DHT22;494;48.744;10.106;2023-06-22T06:16:48;24.50;32.70
1011;DHT22;494;48.744;10.106;2023-06-22T06:19:18;24.60;32.80
1011;DHT22;494;48.744;10.106;2023-06-22T06:21:48;24.70;31.80
1011;DHT22;494;48.744;10.106;2023-06-22T06:24:17;24.80;30.90
1011;DHT22;494;48.744;10.106;2023-06-22T06:26:46;24.90;30.60
1011;DHT22;494;48.744;10.106;2023-06-22T06:29:17;24.90;30.40
1011;DHT22;494;48.744;10.106;2023-06-22T06:31:46;24.90;30.50
1011;DHT22;494;48.744;10.106;2023-06-22T06:34:15;24.80;30.60
1011;DHT22;494;48.744;10.106;2023-06-22T06:36:44;24.80;30.00
1011;DHT22;494;48.744;10.106;2023-06-22T06:39:14;24.90;29.80
1011;DHT22;494;48.744;10.106;2023-06-22T06:41:43;25.00;29.10
1011;DHT22;494;48.744;10.106;2023-06-22T06:44:12;25.20;28.90
1011;DHT22;494;48.744;10.106;2023-06-22T06:46:41;25.50;28.40
1011;DHT22;494;48.744;10.106;2023-06-22T06:49:10;25.90;26.70
1011;DHT22;494;48.744;10.106;2023-06-22T06:51:39;26.00;23.50
1011;DHT22;494;48.744;10.106;2023-06-22T06:54:08;26.20;24.50
1011;DHT22;494;48.744;10.106;2023-06-22T06:56:38;26.30;22.30
1011;DHT22;494;48.744;10.106;2023-06-22T06:59:07;26.30;19.90
1011;DHT22;494;48.744;10.106;2023-06-22T07:01:36;26.30;19.70
1011;DHT22;494;48.744;10.106;2023-06-22T07:04:04;26.30;19.50
1011;DHT22;494;48.744;10.106;2023-06-22T07:06:33;26.50;19.00
1011;DHT22;494;48.744;10.106;2023-06-22T07:09:02;26.60;19.10
1011;DHT22;494;48.744;10.106;2023-06-22T07:11:31;26.70;18.70
1011;DHT22;494;48.744;10.106;2023-06-22T07:14:01;26.90;18.50
1011;DHT22;494;48.744;10.106;2023-06-22T07:16:30;27.00;18.10
1011;DHT22;494;48.744;10.106;2023-06-22T07:18:59;27.20;16.90
1011;DHT22;494;48.744;10.106;2023-06-22T07:21:28;27.50;16.80
1011;DHT22;494;48.744;10.106;2023-06-22T07:23:57;27.70;16.20
1011;DHT22;494;48.744;10.106;2023-06-22T07:26:26;27.90;14.90
1011;DHT22;494;48.744;10.106;2023-06-22T07:28:54;28.00;15.20
1011;DHT22;494;48.744;10.106;2023-06-22T07:31:25;28.10;14.90
1011;DHT22;494;48.744;10.106;2023-06-22T07:33:54;28.30;14.30
1011;DHT22;494;48.744;10.106;2023-06-22T07:36:23;28.50;14.00
1011;DHT22;494;48.744;10.106;2023-06-22T07:38:51;28.80;13.60
1011;DHT22;494;48.744;10.106;2023-06-22T07:41:20;29.20;14.60
1011;DHT22;494;48.744;10.106;2023-06-22T07:43:49;29.40;12.00
1011;DHT22;494;48.744;10.106;2023-06-22T07:46:18;29.50;11.40
1011;DHT22;494;48.744;10.106;2023-06-22T07:48:48;29.50;11.20
1011;DHT22;494;48.744;10.106;2023-06-22T07:51:19;29.60;11.10
1011;DHT22;494;48.744;10.106;2023-06-22T07:53:48;29.60;11.30
1011;DHT22;494;48.744;10.106;2023-06-22T07:56:17;29.60;11.60
1011;DHT22;494;48.744;10.106;2023-06-22T07:58:47;29.60;11.20
1011;DHT22;494;48.744;10.106;2023-06-22T08:01:16;29.50;11.90
1011;DHT22;494;48.744;10.106;2023-06-22T08:03:50;29.60;11.90
1011;DHT22;494;48.744;10.106;2023-06-22T08:06:19;29.60;12.20
1011;DHT22;494;48.744;10.106;2023-06-22T08:08:48;29.70;11.70
1011;DHT22;494;48.744;10.106;2023-06-22T08:11:16;29.90;11.70
1011;DHT22;494;48.744;10.106;2023-06-22T08:13:45;30.20;11.00
1011;DHT22;494;48.744;10.106;2023-06-22T08:16:14;30.30;12.10
1011;DHT22;494;48.744;10.106;2023-06-22T08:18:44;30.40;11.50
1011;DHT22;494;48.744;10.106;2023-06-22T08:21:14;30.50;10.90
1011;DHT22;494;48.744;10.106;2023-06-22T08:23:43;30.60;11.20
1011;DHT22;494;48.744;10.106;2023-06-22T08:26:11;30.60;11.00
1011;DHT22;494;48.744;10.106;2023-06-22T08:28:40;30.70;10.60
1011;DHT22;494;48.744;10.106;2023-06-22T08:31:09;30.90;11.10
1011;DHT22;494;48.744;10.106;2023-06-22T08:33:39;31.10;11.20
1011;DHT22;494;48.744;10.106;2023-06-22T08:36:17;31.00;10.80
1011;DHT22;494;48.744;10.106;2023-06-22T08:38:46;31.00;11.20
1011;DHT22;494;48.744;10.106;2023-06-22T08:41:17;30.90;10.50
1011;DHT22;494;48.744;10.106;2023-06-22T08:43:46;30.90;11.00
1011;DHT22;494;48.744;10.106;2023-06-22T08:46:15;30.80;10.90
1011;DHT22;494;48.744;10.106;2023-06-22T08:48:47;30.80;10.90
1011;DHT22;494;48.744;10.106;2023-06-22T08:51:17;30.70;10.80
1011;DHT22;494;48.744;10.106;2023-06-22T08:53:46;30.60;11.50
1011;DHT22;494;48.744;10.106;2023-06-22T08:56:15;30.60;11.30
1011;DHT22;494;48.744;10.106;2023-06-22T08:58:44;30.60;11.90
1011;DHT22;494;48.744;10.106;2023-06-22T09:01:12;30.80;12.00
1011;DHT22;494;48.744;10.106;2023-06-22T09:03:42;30.90;11.40
1011;DHT22;494;48.744;10.106;2023-06-22T09:06:11;31.10;11.70
1011;DHT22;494;48.744;10.106;2023-06-22T09:08:43;31.20;11.50
1011;DHT22;494;48.744;10.106;2023-06-22T09:11:12;31.40;11.50
1011;DHT22;494;48.744;10.106;2023-06-22T09:13:40;31.50;11.40
1011;DHT22;494;48.744;10.106;2023-06-22T09:16:09;31.50;11.20
1011;DHT22;494;48.744;10.106;2023-06-22T09:18:38;31.50;11.00
1011;DHT22;494;48.744;10.106;2023-06-22T09:21:07;31.60;11.40
1011;DHT22;494;48.744;10.106;2023-06-22T09:23:36;31.60;11.20
1011;DHT22;494;48.744;10.106;2023-06-22T09:26:06;31.90;11.50
1011;DHT22;494;48.744;10.106;2023-06-22T09:28:35;32.30;10.60
1011;DHT22;494;48.744;10.106;2023-06-22T09:31:04;32.40;10.40
1011;DHT22;494;48.744;10.106;2023-06-22T09:33:33;32.70;9.80
1011;DHT22;494;48.744;10.106;2023-06-22T09:36:04;32.70;9.50
1011;DHT22;494;48.744;10.106;2023-06-22T09:38:34;32.70;9.10
1011;DHT22;494;48.744;10.106;2023-06-22T09:41:03;32.80;9.40
1011;DHT22;494;48.744;10.106;2023-06-22T09:43:34;32.80;9.40
1011;DHT22;494;48.744;10.106;2023-06-22T09:46:03;32.90;9.20
1011;DHT22;494;48.744;10.106;2023-06-22T09:48:34;33.10;9.30
1011;DHT22;494;48.744;10.106;2023-06-22T09:51:06;33.20;8.70
1011;DHT22;494;48.744;10.106;2023-06-22T09:53:35;33.50;9.30
1011;DHT22;494;48.744;10.106;2023-06-22T09:56:05;33.80;8.50
1011;DHT22;494;48.744;10.106;2023-06-22T09:58:41;33.80;8.20
1011;DHT22;494;48.744;10.106;2023-06-22T10:01:11;34.00;9.60
1011;DHT22;494;48.744;10.106;2023-06-22T10:03:39;34.50;8.80
1011;DHT22;494;48.744;10.106;2023-06-22T10:06:09;34.70;8.80
1011;DHT22;494;48.744;10.106;2023-06-22T10:08:38;34.80;6.90
1011;DHT22;494;48.744;10.106;2023-06-22T10:11:07;34.70;7.00
1011;DHT22;494;48.744;10.106;2023-06-22T10:13:37;34.50;7.70
1011;DHT22;494;48.744;10.106;2023-06-22T10:16:07;34.60;7.20
1011;DHT22;494;48.744;10.106;2023-06-22T10:18:35;34.80;8.50
1011;DHT22;494;48.744;10.106;2023-06-22T10:21:04;35.00;7.60
1011;DHT22;494;48.744;10.106;2023-06-22T10:23:33;35.10;7.90
1011;DHT22;494;48.744;10.106;2023-06-22T10:26:02;35.20;7.50
1011;DHT22;494;48.744;10.106;2023-06-22T10:28:30;35.40;6.80
1011;DHT22;494;48.744;10.106;2023-06-22T10:30:59;35.60;7.10
1011;DHT22;494;48.744;10.106;2023-06-22T10:33:29;35.70;6.60
1011;DHT22;494;48.744;10.106;2023-06-22T10:35:58;35.80;7.30
1011;DHT22;494;48.744;10.106;2023-06-22T10:38:27;36.00;7.60
1011;DHT22;494;48.744;10.106;2023-06-22T10:40:56;36.10;6.10
1011;DHT22;494;48.744;10.106;2023-06-22T10:43:25;36.30;6.40
1011;DHT22;494;48.744;10.106;2023-06-22T10:45:56;36.30;6.10
1011;DHT22;494;48.744;10.106;2023-06-22T10:48:24;36.40;5.70
1011;DHT22;494;48.744;10.106;2023-06-22T10:50:55;36.50;6.20
1011;DHT22;494;48.744;10.106;2023-06-22T10:53:23;36.50;6.10
1011;DHT22;494;48.744;10.106;2023-06-22T10:55:52;36.40;6.00
1011;DHT22;494;48.744;10.106;2023-06-22T10:58:23;36.60;6.50
1011;DHT22;494;48.744;10.106;2023-06-22T11:00:52;36.60;5.00
1011;DHT22;494;48.744;10.106;2023-06-22T11:03:21;36.50;6.30
1011;DHT22;494;48.744;10.106;2023-06-22T11:05:50;36.50;5.20
1011;DHT22;494;48.744;10.106;2023-06-22T11:08:20;36.70;4.60
1011;DHT22;494;48.744;10.106;2023-06-22T11:10:50;36.70;4.90
1011;DHT22;494;48.744;10.106;2023-06-22T11:13:19;36.80;4.40
1011;DHT22;494;48.744;10.106;2023-06-22T11:15:48;37.00;3.90
1011;DHT22;494;48.744;10.106;2023-06-22T11:18:17;37.40;3.40
1011;DHT22;494;48.744;10.106;2023-06-22T11:20:46;37.60;3.60
1011;DHT22;494;48.744;10.106;2023-06-22T11:23:20;37.80;3.70
1011;DHT22;494;48.744;10.106;2023-06-22T11:25:49;37.80;2.70
1011;DHT22;494;48.744;10.106;2023-06-22T11:28:18;37.60;3.50
1011;DHT22;494;48.744;10.106;2023-06-22T11:30:46;37.60;4.40
1011;DHT22;494;48.744;10.106;2023-06-22T11:33:15;37.70;4.70
1011;DHT22;494;48.744;10.106;2023-06-22T11:35:44;37.80;2.90
1011;DHT22;494;48.744;10.106;2023-06-22T11:38:12;37.90;2.30
1011;DHT22;494;48.744;10.106;2023-06-22T11:40:44;37.80;3.30
1011;DHT22;494;48.744;10.106;2023-06-22T11:43:12;37.80;2.90
1011;DHT22;494;48.744;10.106;2023-06-22T11:45:43;37.80;2.80
1011;DHT22;494;48.744;10.106;2023-06-22T11:48:12;37.70;2.50
1011;DHT22;494;48.744;10.106;2023-06-22T11:50:41;37.80;3.20
1011;DHT22;494;48.744;10.106;2023-06-22T11:53:10;38.10;3.00
1011;DHT22;494;48.744;10.106;2023-06-22T11:55:39;38.20;2.60
1011;DHT22;494;48.744;10.106;2023-06-22T11:58:10;38.10;3.80
1011;DHT22;494;48.744;10.106;2023-06-22T12:00:39;38.10;3.80
1011;DHT22;494;48.744;10.106;2023-06-22T12:03:18;38.40;3.60
1011;DHT22;494;48.744;10.106;2023-06-22T12:05:50;38.60;2.30
1011;DHT22;494;48.744;10.106;2023-06-22T12:08:20;38.70;1.90
1011;DHT22;494;48.744;10.106;2023-06-22T12:10:51;38.90;2.20
1011;DHT22;494;48.744;10.106;2023-06-22T12:13:23;39.00;2.40
1011;DHT22;494;48.744;10.106;2023-06-22T12:15:52;39.10;2.30
1011;DHT22;494;48.744;10.106;2023-06-22T12:18:20;38.90;1.50
1011;DHT22;494;48.744;10.106;2023-06-22T12:20:50;38.60;2.40
1011;DHT22;494;48.744;10.106;2023-06-22T12:23:20;38.10;3.30
1011;DHT22;494;48.744;10.106;2023-06-22T12:25:49;37.90;3.40
1011;DHT22;494;48.744;10.106;2023-06-22T12:28:19;37.70;3.20
1011;DHT22;494;48.744;10.106;2023-06-22T12:30:52;37.60;3.40
1011;DHT22;494;48.744;10.106;2023-06-22T12:33:21;37.60;4.20
1011;DHT22;494;48.744;10.106;2023-06-22T12:35:50;37.70;3.80
1011;DHT22;494;48.744;10.106;2023-06-22T12:38:19;37.70;3.20
1011;DHT22;494;48.744;10.106;2023-06-22T12:40:48;37.70;2.20
1011;DHT22;494;48.744;10.106;2023-06-22T12:43:17;37.90;2.70
1011;DHT22;494;48.744;10.106;2023-06-22T12:45:47;38.10;3.30
1011;DHT22;494;48.744;10.106;2023-06-22T12:48:17;38.20;2.70
1011;DHT22;494;48.744;10.106;2023-06-22T12:50:46;38.20;3.10
1011;DHT22;494;48.744;10.106;2023-06-22T12:53:16;38.30;2.40
1011;DHT22;494;48.744;10.106;2023-06-22T12:55:46;38.30;2.40
1011;DHT22;494;48.744;10.106;2023-06-22T12:58:14;38.30;3.20
1011;DHT22;494;48.744;10.106;2023-06-22T13:00:44;38.40;3.90
1011;DHT22;494;48.744;10.106;2023-06-22T13:03:12;38.70;3.00
1011;DHT22;494;48.744;10.106;2023-06-22T13:05:43;38.90;2.60
1011;DHT22;494;48.744;10.106;2023-06-22T13:08:13;39.00;2.80
1011;DHT22;494;48.744;10.106;2023-06-22T13:10:42;38.80;2.40
1011;DHT22;494;48.744;10.106;2023-06-22T13:13:12;38.60;3.10
1011;DHT22;494;48.744;10.106;2023-06-22T13:15:41;38.60;2.90
1011;DHT22;494;48.744;10.106;2023-06-22T13:18:10;38.70;1.90
1011;DHT22;494;48.744;10.106;2023-06-22T13:20:42;39.00;1.90
1011;DHT22;494;48.744;10.106;2023-06-22T13:23:12;39.20;1.60
1011;DHT22;494;48.744;10.106;2023-06-22T13:25:41;39.20;3.00
1011;DHT22;494;48.744;10.106;2023-06-22T13:28:10;39.00;2.40
1011;DHT22;494;48.744;10.106;2023-06-22T13:30:54;38.70;2.80
1011;DHT22;494;48.744;10.106;2023-06-22T13:33:23;38.20;3.40
1011;DHT22;494;48.744;10.106;2023-06-22T13:35:56;38.00;3.90
1011;DHT22;494;48.744;10.106;2023-06-22T13:38:24;37.70;3.30
1011;DHT22;494;48.744;10.106;2023-06-22T13:40:53;37.70;3.90
1011;DHT22;494;48.744;10.106;2023-06-22T13:43:26;37.30;4.50
1011;DHT22;494;48.744;10.106;2023-06-22T13:45:55;37.30;3.70
1011;DHT22;494;48.744;10.106;2023-06-22T13:48:25;37.20;3.60
1011;DHT22;494;48.744;10.106;2023-06-22T13:50:57;37.10;4.80
1011;DHT22;494;48.744;10.106;2023-06-22T13:53:25;37.00;5.90
1011;DHT22;494;48.744;10.106;2023-06-22T13:55:55;36.90;4.70
1011;DHT22;494;48.744;10.106;2023-06-22T13:58:24;36.70;4.10
1011;DHT22;494;48.744;10.106;2023-06-22T14:00:53;36.70;4.40
1011;DHT22;494;48.744;10.106;2023-06-22T14:03:23;36.70;4.80
1011;DHT22;494;48.744;10.106;2023-06-22T14:05:52;36.80;5.90
1011;DHT22;494;48.744;10.106;2023-06-22T14:08:25;37.00;8.80
1011;DHT22;494;48.744;10.106;2023-06-22T14:10:57;37.10;9.00
1011;DHT22;494;48.744;10.106;2023-06-22T14:13:25;37.00;9.80
1011;DHT22;494;48.744;10.106;2023-06-22T14:15:55;36.60;10.50
1011;DHT22;494;48.744;10.106;2023-06-22T14:18:24;36.30;9.20
1011;DHT22;494;48.744;10.106;2023-06-22T14:20:52;36.30;8.50
1011;DHT22;494;48.744;10.106;2023-06-22T14:23:24;36.50;7.80
1011;DHT22;494;48.744;10.106;2023-06-22T14:25:53;36.70;6.40
1011;DHT22;494;48.744;10.106;2023-06-22T14:28:22;37.00;5.40
1011;DHT22;494;48.744;10.106;2023-06-22T14:30:51;37.20;5.80
1011;DHT22;494;48.744;10.106;2023-06-22T14:33:19;37.50;5.60
1011;DHT22;494;48.744;10.106;2023-06-22T14:35:49;37.70;5.00
1011;DHT22;494;48.744;10.106;2023-06-22T14:38:18;37.70;4.90
1011;DHT22;494;48.744;10.106;2023-06-22T14:40:49;37.70;6.90
1011;DHT22;494;48.744;10.106;2023-06-22T14:43:42;37.70;6.00
1011;DHT22;494;48.744;10.106;2023-06-22T14:46:12;37.60;5.90
1011;DHT22;494;48.744;10.106;2023-06-22T14:48:42;37.40;6.10
1011;DHT22;494;48.744;10.106;2023-06-22T14:51:14;37.40;6.80
1011;DHT22;494;48.744;10.106;2023-06-22T14:53:44;37.40;3.70
1011;DHT22;494;48.744;10.106;2023-06-22T14:56:16;37.50;4.70
1011;DHT22;494;48.744;10.106;2023-06-22T14:58:45;37.90;3.40
1011;DHT22;494;48.744;10.106;2023-06-22T15:01:17;38.20;1.00
1011;DHT22;494;48.744;10.106;2023-06-22T15:03:46;38.60;1.00
1011;DHT22;494;48.744;10.106;2023-06-22T15:06:15;39.00;1.00
1011;DHT22;494;48.744;10.106;2023-06-22T15:08:44;39.30;1.00
1011;DHT22;494;48.744;10.106;2023-06-22T15:11:15;39.40;1.00
1011;DHT22;494;48.744;10.106;2023-06-22T15:13:46;39.50;1.00
1011;DHT22;494;48.744;10.106;2023-06-22T15:16:14;39.60;1.00
1011;DHT22;494;48.744;10.106;2023-06-22T15:18:43;39.80;1.00
1011;DHT22;494;48.744;10.106;2023-06-22T15:21:14;40.10;1.00
1011;DHT22;494;48.744;10.106;2023-06-22T15:23:43;40.30;1.00
1011;DHT22;494;48.744;10.106;2023-06-22T15:26:17;40.30;1.00
1011;DHT22;494;48.744;10.106;2023-06-22T15:28:46;40.50;1.00
1011;DHT22;494;48.744;10.106;2023-06-22T15:31:16;40.50;1.00
1011;DHT22;494;48.744;10.106;2023-06-22T15:33:46;40.20;1.00
1011;DHT22;494;48.744;10.106;2023-06-22T15:36:15;40.10;1.00
1011;DHT22;494;48.744;10.106;2023-06-22T15:38:44;40.00;1.00
1011;DHT22;494;48.744;10.106;2023-06-22T15:41:14;39.90;1.00
1011;DHT22;494;48.744;10.106;2023-06-22T15:43:47;39.70;1.00
1011;DHT22;494;48.744;10.106;2023-06-22T15:46:16;39.60;1.00
1011;DHT22;494;48.744;10.106;2023-06-22T15:48:46;39.50;1.00
1011;DHT22;494;48.744;10.106;2023-06-22T15:51:20;39.40;1.00
1011;DHT22;494;48.744;10.106;2023-06-22T15:53:51;39.40;1.00
1011;DHT22;494;48.744;10.106;2023-06-22T15:56:23;39.20;1.00
1011;DHT22;494;48.744;10.106;2023-06-22T15:58:54;39.00;1.00
1011;DHT22;494;48.744;10.106;2023-06-22T16:01:23;38.80;1.00
1011;DHT22;494;48.744;10.106;2023-06-22T16:03:53;38.20;1.00
1011;DHT22;494;48.744;10.106;2023-06-22T16:06:22;37.80;1.00
1011;DHT22;494;48.744;10.106;2023-06-22T16:08:51;37.60;1.00
1011;DHT22;494;48.744;10.106;2023-06-22T16:11:21;37.20;1.00
1011;DHT22;494;48.744;10.106;2023-06-22T16:13:50;36.80;1.90
1011;DHT22;494;48.744;10.106;2023-06-22T16:16:23;36.50;4.10
1011;DHT22;494;48.744;10.106;2023-06-22T16:18:52;36.20;3.10
1011;DHT22;494;48.744;10.106;2023-06-22T16:21:21;35.80;4.20
1011;DHT22;494;48.744;10.106;2023-06-22T16:23:50;35.40;5.00
1011;DHT22;494;48.744;10.106;2023-06-22T16:26:19;35.00;6.00
1011;DHT22;494;48.744;10.106;2023-06-22T16:28:48;34.40;6.40